Hathaway, MT (59333)

9:47 AM MDT on July 06, 2015 (GMT -0600)
Wiley | | Change Station
CLOSE
Current Station
Airport
Location: Miles City,
Elevation: 2628 ft
Nearby Weather Stations

Elev 2628 ft 46.43 °N, 105.88 °W | Updated 54 minutes ago

Overcast
Overcast
61 °F
Feels Like 61 °F
N
7
Wind Variable Wind from NW

Today
High -- | Low -- °F
--% Chance of Precip.
Yesterday
High -- | Low -- °F
Precip. -- in
5:19 AM 8:58 PM
Waning Gibbous, 74% visible
Pressure 30.23 in
Visibility 10.0 miles
Clouds Few 1400 ft
Scattered Clouds 2000 ft
Mostly Cloudy 5500 ft
Dew Point 54 °F
Humidity 78%
Rainfall 0.04 in
Snow Depth Not available.
UV 2 out of 12
Pollen 4.50 out of 12
Air Quality Not available.
Flu Activity Not available.
METAR KMLS 061453Z AUTO 32006KT 10SM FEW014 SCT020 BKN055 16/12 A3024 RMK AO2 SLP235 60002 T01610122 52005

More Conditions Fewer Conditions

Pressure 30.23 in
Visibility 10.0 miles
Clouds Few 1400 ft
Scattered Clouds 2000 ft
Mostly Cloudy 5500 ft
Dew Point 54 °F
Humidity 78%
Rainfall 0.04 in
Snow Depth Not available.
UV 2 out of 12
Pollen 4.50 out of 12
Air Quality Not available.
Flu Activity Not available.
METAR KMLS 061453Z AUTO 32006KT 10SM FEW014 SCT020 BKN055 16/12 A3024 RMK AO2 SLP235 60002 T01610122 52005

More Conditions Fewer Conditions

10-Day Weather Forecast

×

Almanac

Astronomy

Jul. 06, 2015 Rise Set
Actual Time
Civil Twilight
Nautical Twilight
Astronomical Twilight
Moon
Length of Visible Light
Length of Day
Tomorrow will be .
, % of the Moon is Illuminated

Today's Extremes

State Highs State Lows

Community

WunderPhotos

Upload Photos

1,835,576 photos uploaded!

WunderBlogs® & News

Nearby

Air Quality

  Air Quality AQ Index Pollutant
Not available.

Snow Depth

Station Depth Elevation

Earthquake Activity

City Distance Mag. Time & Date
Minimum magnitude displayed is 2.5.

Coastal Water Temperatures

Place Temperature

Stations

Nearby Weather Stations

Station Location Temp. Windchill Dew Point Humidity Wind Precip. Elev Updated Type